Time;durP1;ratioP1;P1;durP2;ratioP2;P2;SDS_P1;SDS_P2;PMS_P1;PMS_P2;Temp;Humidity;BMP_temperature;BMP_pressure;BME280_temperature;BME280_humidity;BME280_pressure;Samples;Min_cycle;Max_cycle;Signal;HPM_P1;HPM_P2
2023/06/03 00:00:22;;;;;;;7.22;4.18;;;;;;;-144.85;100.00;61331.59;5096659;28;32535;-73
2023/06/03 00:02:52;;;;;;;8.93;4.30;;;;;;;-144.85;100.00;61331.59;5081327;28;31285;-73
2023/06/03 00:05:21;;;;;;;10.02;4.60;;;;;;;-144.85;100.00;61331.59;5086024;28;31617;-74
2023/06/03 00:07:49;;;;;;;9.10;4.05;;;;;;;-144.85;100.00;61331.59;5062860;28;32908;-73
2023/06/03 00:10:16;;;;;;;10.93;4.75;;;;;;;-144.85;100.00;61331.59;5091775;28;31649;-73
2023/06/03 00:12:45;;;;;;;10.23;4.25;;;;;;;-144.85;100.00;61331.59;5099665;28;34410;-74
2023/06/03 00:15:12;;;;;;;9.68;4.40;;;;;;;-144.85;100.00;61331.59;5079054;28;33267;-73
2023/06/03 00:17:39;;;;;;;12.68;4.53;;;;;;;-144.85;100.00;61331.59;5098201;28;32479;-73
2023/06/03 00:20:06;;;;;;;12.07;4.72;;;;;;;-144.85;100.00;61331.59;5083549;28;30278;-73
2023/06/03 00:22:35;;;;;;;8.43;3.97;;;;;;;-144.85;100.00;61331.59;5099424;28;33060;-73
2023/06/03 00:25:07;;;;;;;9.50;4.05;;;;;;;-144.85;100.00;61331.59;5080830;28;33259;-73
2023/06/03 00:27:35;;;;;;;9.35;4.40;;;;;;;-144.85;100.00;61331.59;5097544;28;30860;-73
2023/06/03 00:30:04;;;;;;;12.35;4.45;;;;;;;-144.85;100.00;61331.59;5082297;28;31745;-73
2023/06/03 00:32:33;;;;;;;10.18;4.50;;;;;;;-144.85;100.00;61331.59;5067191;28;31098;-73
2023/06/03 00:35:00;;;;;;;10.10;4.40;;;;;;;-144.85;100.00;61331.59;5098909;28;34570;-73
2023/06/03 00:37:27;;;;;;;10.45;4.35;;;;;;;-144.85;100.00;61331.59;5100951;28;33661;-73
2023/06/03 00:39:55;;;;;;;7.60;4.18;;;;;;;-144.85;100.00;61331.59;5098883;28;32574;-73
2023/06/03 00:42:22;;;;;;;7.85;4.40;;;;;;;-144.85;100.00;61331.59;5104837;28;32343;-73
2023/06/03 00:44:49;;;;;;;8.18;4.43;;;;;;;-144.85;100.00;61331.59;5097817;28;32821;-73
2023/06/03 00:47:18;;;;;;;6.95;4.03;;;;;;;-144.85;100.00;61331.59;5051528;28;30850;-73
2023/06/03 00:49:46;;;;;;;7.97;4.53;;;;;;;-144.85;100.00;61331.59;5100399;28;31250;-73
2023/06/03 00:52:16;;;;;;;7.75;4.15;;;;;;;-144.85;100.00;61331.59;5098649;28;32345;-73
2023/06/03 00:54:47;;;;;;;6.97;4.18;;;;;;;-144.85;100.00;61331.59;5080467;28;33229;-73
2023/06/03 00:57:15;;;;;;;8.70;4.50;;;;;;;-144.85;100.00;61331.59;5079614;28;31911;-73
2023/06/03 00:59:42;;;;;;;10.27;4.68;;;;;;;-144.85;100.00;61331.59;5094403;28;32351;-73
2023/06/03 01:02:12;;;;;;;10.07;4.47;;;;;;;-144.85;100.00;61331.59;5097582;28;32432;-73
2023/06/03 01:04:42;;;;;;;11.35;4.50;;;;;;;-144.85;100.00;61331.59;5097782;28;32324;-73
2023/06/03 01:07:46;;;;;;;9.18;4.80;;;;;;;-144.85;100.00;61331.59;5065380;28;30823;-73
2023/06/03 01:10:46;;;;;;;7.97;3.97;;;;;;;-144.85;100.00;61331.59;5089415;28;31790;-73
2023/06/03 01:13:26;;;;;;;10.50;4.28;;;;;;;-144.85;100.00;61331.59;5095232;28;32592;-73
2023/06/03 01:15:55;;;;;;;9.52;4.45;;;;;;;-144.85;100.00;61331.59;5093145;28;32292;-73
2023/06/03 01:18:23;;;;;;;7.38;4.18;;;;;;;-144.85;100.00;61331.59;5079279;28;31657;-73
2023/06/03 01:20:51;;;;;;;8.60;4.35;;;;;;;-144.85;100.00;61331.59;5074963;28;30174;-72
2023/06/03 01:23:24;;;;;;;9.73;4.53;;;;;;;-144.85;100.00;61331.59;5102731;28;32392;-72
2023/06/03 01:25:57;;;;;;;9.18;4.43;;;;;;;-144.85;100.00;61331.59;5064507;28;30904;-73
2023/06/03 01:28:26;;;;;;;12.95;4.47;;;;;;;-144.85;100.00;61331.59;5079699;28;30906;-73
2023/06/03 01:30:57;;;;;;;7.90;4.63;;;;;;;-144.85;100.00;61331.59;5096928;28;32912;-73
2023/06/03 01:33:27;;;;;;;10.93;4.90;;;;;;;-144.85;100.00;61331.59;5078592;28;31804;-73
2023/06/03 01:35:58;;;;;;;11.77;4.95;;;;;;;-144.85;100.00;61331.59;5066348;28;31150;-73
2023/06/03 01:38:26;;;;;;;11.35;5.05;;;;;;;-144.85;100.00;61331.59;5067168;28;30902;-73
2023/06/03 01:40:57;;;;;;;11.93;4.70;;;;;;;-144.85;100.00;61331.59;5083130;28;31470;-73
2023/06/03 01:43:24;;;;;;;13.55;5.05;;;;;;;-144.85;100.00;61331.59;5067934;28;32361;-73
2023/06/03 01:45:52;;;;;;;12.35;5.00;;;;;;;-144.85;100.00;61331.59;5080862;28;31074;-73
2023/06/03 01:48:20;;;;;;;9.10;5.03;;;;;;;-144.85;100.00;61331.59;5066303;28;30792;-73
2023/06/03 01:50:47;;;;;;;8.55;4.97;;;;;;;-144.85;100.00;61331.59;5098996;28;30456;-73
2023/06/03 01:53:16;;;;;;;8.43;5.10;;;;;;;-144.85;100.00;61331.59;5083607;28;31750;-73
2023/06/03 01:55:46;;;;;;;9.82;4.75;;;;;;;-144.85;100.00;61331.59;5097977;28;33295;-73
2023/06/03 01:58:15;;;;;;;8.65;4.68;;;;;;;-144.85;100.00;61331.59;5100336;28;33298;-73
2023/06/03 02:00:42;;;;;;;8.55;4.72;;;;;;;-144.85;100.00;61331.59;5065238;28;30769;-73
2023/06/03 02:03:10;;;;;;;8.45;5.30;;;;;;;-144.85;100.00;61331.59;5102403;28;32145;-73
2023/06/03 02:05:37;;;;;;;7.88;5.07;;;;;;;-144.85;100.00;61331.59;5084331;28;31012;-73
2023/06/03 02:08:07;;;;;;;9.60;4.88;;;;;;;-144.85;100.00;61331.59;5079033;28;30775;-73
2023/06/03 02:10:35;;;;;;;7.30;4.82;;;;;;;-144.85;100.00;61331.59;5079503;28;30559;-73
2023/06/03 02:13:02;;;;;;;7.40;4.68;;;;;;;-144.85;100.00;61331.59;5079532;28;32507;-74
2023/06/03 02:15:30;;;;;;;7.30;4.78;;;;;;;-144.85;100.00;61331.59;5097318;28;32027;-73
2023/06/03 02:17:59;;;;;;;7.78;4.82;;;;;;;-144.85;100.00;61331.59;5097433;28;32188;-73
2023/06/03 02:20:26;;;;;;;9.23;4.75;;;;;;;-144.85;100.00;61331.59;5048962;28;31488;-73
2023/06/03 02:22:54;;;;;;;9.65;4.80;;;;;;;-144.85;100.00;61331.59;5081745;28;32544;-73
2023/06/03 02:25:22;;;;;;;9.30;4.63;;;;;;;-144.85;100.00;61331.59;5099400;28;32048;-73
2023/06/03 02:27:50;;;;;;;9.10;4.70;;;;;;;-144.85;100.00;61331.59;5082396;28;31826;-73
2023/06/03 02:30:17;;;;;;;8.75;4.40;;;;;;;-144.85;100.00;61331.59;5084236;28;31262;-73
2023/06/03 02:32:45;;;;;;;10.98;4.93;;;;;;;-144.85;100.00;61331.59;5065445;28;31020;-73
2023/06/03 02:35:14;;;;;;;9.88;4.60;;;;;;;-144.85;100.00;61331.59;5056081;28;31198;-73
2023/06/03 02:37:41;;;;;;;9.80;4.50;;;;;;;-144.85;100.00;61331.59;5082967;28;31017;-74
2023/06/03 02:40:10;;;;;;;9.65;4.53;;;;;;;-144.85;100.00;61331.59;5087228;28;31922;-73
2023/06/03 02:42:38;;;;;;;10.15;5.05;;;;;;;-144.85;100.00;61331.59;5070706;28;32739;-73
2023/06/03 02:45:06;;;;;;;8.88;4.63;;;;;;;-144.85;100.00;61331.59;5101598;28;33218;-72
2023/06/03 02:47:33;;;;;;;9.15;4.38;;;;;;;-144.85;100.00;61331.59;5078691;28;31344;-72
2023/06/03 02:50:01;;;;;;;9.27;4.70;;;;;;;-144.85;100.00;61331.59;5079208;28;31343;-72
2023/06/03 02:52:30;;;;;;;11.35;4.70;;;;;;;-144.85;100.00;61331.59;5078592;28;31460;-72
2023/06/03 02:54:57;;;;;;;8.20;4.40;;;;;;;-144.85;100.00;61331.59;5063518;28;30944;-72
2023/06/03 02:57:24;;;;;;;8.73;4.53;;;;;;;-144.85;100.00;61331.59;5064607;28;32358;-72
2023/06/03 02:59:51;;;;;;;7.35;4.63;;;;;;;-144.85;100.00;61331.59;5099678;28;31323;-73
2023/06/03 03:02:19;;;;;;;9.43;4.43;;;;;;;-144.85;100.00;61331.59;5064047;28;32448;-73
2023/06/03 03:04:46;;;;;;;8.80;4.15;;;;;;;-144.85;100.00;61331.59;5061199;28;31002;-73
2023/06/03 03:07:14;;;;;;;6.95;4.30;;;;;;;-144.85;100.00;61331.59;5087504;28;31761;-73
2023/06/03 03:09:41;;;;;;;7.90;4.45;;;;;;;-144.85;100.00;61331.59;5094728;28;31204;-73
2023/06/03 03:12:09;;;;;;;10.35;4.72;;;;;;;-144.85;100.00;61331.59;5062041;28;31468;-72
2023/06/03 03:14:40;;;;;;;7.78;4.57;;;;;;;-144.85;100.00;61331.59;5077104;28;31403;-72
2023/06/03 03:17:07;;;;;;;9.30;4.93;;;;;;;-144.85;100.00;61331.59;5082894;28;31012;-72
2023/06/03 03:19:35;;;;;;;6.65;4.28;;;;;;;-144.85;100.00;61331.59;5075832;28;31394;-73
2023/06/03 03:22:03;;;;;;;7.20;4.30;;;;;;;-144.85;100.00;61331.59;5083591;28;31410;-73
2023/06/03 03:24:30;;;;;;;8.55;4.40;;;;;;;-144.85;100.00;61331.59;5098436;28;33050;-72
2023/06/03 03:26:59;;;;;;;8.27;4.25;;;;;;;-144.85;100.00;61331.59;5080009;28;30844;-72
2023/06/03 03:29:29;;;;;;;7.20;4.28;;;;;;;-144.85;100.00;61331.59;5062471;28;32127;-72
2023/06/03 03:32:07;;;;;;;10.15;4.10;;;;;;;-144.85;100.00;61331.59;5062368;28;31329;-73
2023/06/03 03:34:38;;;;;;;8.50;4.18;;;;;;;-144.85;100.00;61331.59;5060562;28;31418;-72
2023/06/03 03:37:12;;;;;;;9.95;4.70;;;;;;;-144.85;100.00;61331.59;5056574;28;31080;-73
2023/06/03 03:39:42;;;;;;;8.95;4.25;;;;;;;-144.85;100.00;61331.59;5061723;28;32243;-73
2023/06/03 03:42:10;;;;;;;6.68;4.60;;;;;;;-144.85;100.00;61331.59;5077910;28;31441;-72
2023/06/03 03:44:37;;;;;;;9.15;4.70;;;;;;;-144.85;100.00;61331.59;5079226;28;32843;-72
2023/06/03 03:47:07;;;;;;;12.15;4.78;;;;;;;-144.85;100.00;61331.59;5078193;28;31177;-72
2023/06/03 03:49:36;;;;;;;6.90;4.25;;;;;;;-144.85;100.00;61331.59;5077394;28;32247;-72
2023/06/03 03:52:09;;;;;;;7.95;4.10;;;;;;;-144.85;100.00;61331.59;5060396;28;32632;-73
2023/06/03 03:54:40;;;;;;;7.85;4.40;;;;;;;-144.85;100.00;61331.59;5060795;28;31076;-72
2023/06/03 03:57:13;;;;;;;8.23;4.22;;;;;;;-144.85;100.00;61331.59;5068795;28;30776;-73
2023/06/03 03:59:46;;;;;;;8.32;4.57;;;;;;;-144.85;100.00;61331.59;5078605;28;31142;-73
2023/06/03 04:02:14;;;;;;;7.25;4.00;;;;;;;-144.85;100.00;61331.59;5074640;28;31440;-73
2023/06/03 04:04:45;;;;;;;8.15;4.50;;;;;;;-144.85;100.00;61331.59;5080092;28;31161;-73
2023/06/03 04:07:18;;;;;;;10.57;4.65;;;;;;;-144.85;100.00;61331.59;5064888;28;31881;-73
2023/06/03 04:09:47;;;;;;;6.88;3.80;;;;;;;-144.85;100.00;61331.59;5060254;28;32308;-72
2023/06/03 04:12:28;;;;;;;9.27;4.07;;;;;;;-144.85;100.00;61331.59;5066060;28;31618;-73
2023/06/03 04:14:56;;;;;;;6.75;3.70;;;;;;;-144.85;100.00;61331.59;5078565;28;31025;-73
2023/06/03 04:17:26;;;;;;;9.52;3.90;;;;;;;-144.85;100.00;61331.59;5044921;28;32244;-72
2023/06/03 04:19:55;;;;;;;7.30;4.00;;;;;;;-144.85;100.00;61331.59;5080209;28;30678;-72
2023/06/03 04:22:26;;;;;;;8.52;3.60;;;;;;;-144.85;100.00;61331.59;5060709;28;31906;-72
2023/06/03 04:24:59;;;;;;;8.68;3.80;;;;;;;-144.85;100.00;61331.59;5075600;28;31045;-72
2023/06/03 04:27:36;;;;;;;8.68;3.90;;;;;;;-144.85;100.00;61331.59;5074706;28;30783;-73
2023/06/03 04:30:05;;;;;;;4.88;3.53;;;;;;;-144.85;100.00;61331.59;5061451;28;32326;-72
2023/06/03 04:32:32;;;;;;;6.63;3.67;;;;;;;-144.85;100.00;61331.59;5078228;28;32949;-73
2023/06/03 04:34:59;;;;;;;5.95;3.25;;;;;;;-144.85;100.00;61331.59;5080985;28;30982;-72
2023/06/03 04:37:27;;;;;;;9.20;3.72;;;;;;;-144.85;100.00;61331.59;5084190;28;30995;-72
2023/06/03 04:39:54;;;;;;;8.05;4.03;;;;;;;-144.85;100.00;61331.59;5053583;28;31706;-72
2023/06/03 04:42:22;;;;;;;6.13;3.70;;;;;;;-144.85;100.00;61331.59;5068739;28;31540;-72
2023/06/03 04:44:58;;;;;;;6.60;3.75;;;;;;;-144.85;100.00;61331.59;5078619;28;31396;-72
2023/06/03 04:47:28;;;;;;;6.90;3.60;;;;;;;-144.85;100.00;61331.59;5081290;28;31756;-72
2023/06/03 04:49:58;;;;;;;6.18;3.45;;;;;;;-144.85;100.00;61331.59;5083112;28;30669;-73
2023/06/03 04:52:25;;;;;;;4.72;2.92;;;;;;;-144.85;100.00;61331.59;5068316;28;31702;-73
2023/06/03 04:54:53;;;;;;;6.53;3.25;;;;;;;-144.85;100.00;61331.59;5079099;28;33871;-73
2023/06/03 04:57:24;;;;;;;7.68;3.20;;;;;;;-144.85;100.00;61331.59;5053497;28;31033;-73
2023/06/03 04:59:52;;;;;;;8.30;3.08;;;;;;;-144.85;100.00;61331.59;5079653;28;30932;-72
2023/06/03 05:02:23;;;;;;;6.32;2.80;;;;;;;-144.85;100.00;61331.59;5086655;28;33674;-73
2023/06/03 05:04:53;;;;;;;7.22;3.05;;;;;;;-144.85;100.00;61331.59;5081951;28;31825;-73
2023/06/03 05:07:24;;;;;;;6.20;2.92;;;;;;;-144.85;100.00;61331.59;5063880;28;32367;-73
2023/06/03 05:09:51;;;;;;;4.45;2.75;;;;;;;-144.85;100.00;61331.59;5097502;28;31389;-72
2023/06/03 05:12:19;;;;;;;8.88;3.13;;;;;;;-144.85;100.00;61331.59;5079155;28;31546;-72
2023/06/03 05:14:47;;;;;;;5.03;2.72;;;;;;;-144.85;100.00;61331.59;5097269;28;32401;-74
2023/06/03 05:17:16;;;;;;;5.35;2.40;;;;;;;-144.85;100.00;61331.59;5055623;28;31234;-74
2023/06/03 05:19:44;;;;;;;7.07;2.67;;;;;;;-144.85;100.00;61331.59;5100953;28;32041;-74
2023/06/03 05:22:11;;;;;;;5.22;2.47;;;;;;;-144.85;100.00;61331.59;5077173;28;34290;-74
2023/06/03 05:24:38;;;;;;;5.53;2.38;;;;;;;-144.85;100.00;61331.59;5066057;28;31183;-74
2023/06/03 05:27:05;;;;;;;5.10;2.40;;;;;;;-144.85;100.00;61331.59;5079052;28;30887;-72
2023/06/03 05:29:33;;;;;;;4.43;2.40;;;;;;;-144.85;100.00;61331.59;5064991;28;30616;-73
2023/06/03 05:32:01;;;;;;;5.20;2.30;;;;;;;-144.85;100.00;61331.59;5076006;28;31727;-72
2023/06/03 05:34:29;;;;;;;3.85;2.13;;;;;;;-144.85;100.00;61331.59;5090434;28;32155;-72
2023/06/03 05:36:56;;;;;;;3.75;2.22;;;;;;;-144.85;100.00;61331.59;5095949;28;32677;-72
2023/06/03 05:39:23;;;;;;;3.83;2.10;;;;;;;-144.85;100.00;61331.59;5081586;28;30380;-73
2023/06/03 05:41:50;;;;;;;7.68;2.38;;;;;;;-144.85;100.00;61331.59;5081104;28;31555;-73
2023/06/03 05:44:18;;;;;;;4.90;2.30;;;;;;;-144.85;100.00;61331.59;5066987;28;31508;-72
2023/06/03 05:46:45;;;;;;;4.43;2.20;;;;;;;-144.85;100.00;61331.59;5081084;28;32067;-72
2023/06/03 05:49:12;;;;;;;4.70;2.38;;;;;;;-144.85;100.00;61331.59;5082177;28;31627;-72
2023/06/03 05:51:40;;;;;;;3.15;2.15;;;;;;;-144.85;100.00;61331.59;5068737;28;31479;-72
2023/06/03 05:54:07;;;;;;;3.92;2.35;;;;;;;-144.85;100.00;61331.59;5087909;28;31448;-72
2023/06/03 05:56:34;;;;;;;8.38;2.35;;;;;;;-144.85;100.00;61331.59;5102935;28;31900;-73
2023/06/03 05:59:02;;;;;;;3.78;2.10;;;;;;;-144.85;100.00;61331.59;5082148;28;30673;-73
2023/06/03 06:01:35;;;;;;;5.15;2.17;;;;;;;-144.85;100.00;61331.59;5077280;28;31802;-73
2023/06/03 06:04:02;;;;;;;3.65;2.20;;;;;;;-144.85;100.00;61331.59;5063996;28;33362;-73
2023/06/03 06:06:30;;;;;;;3.58;2.10;;;;;;;-144.85;100.00;61331.59;5099240;28;32637;-73
2023/06/03 06:08:57;;;;;;;5.20;2.10;;;;;;;-144.85;100.00;61331.59;5098687;28;31354;-72
2023/06/03 06:11:26;;;;;;;5.80;2.13;;;;;;;-144.85;100.00;61331.59;5079904;28;32540;-75
2023/06/03 06:13:54;;;;;;;4.22;2.03;;;;;;;-144.85;100.00;61331.59;5080262;28;31282;-73
2023/06/03 06:16:22;;;;;;;4.60;2.00;;;;;;;-144.85;100.00;61331.59;5091797;28;31181;-72
2023/06/03 06:18:49;;;;;;;3.90;2.00;;;;;;;-144.85;100.00;61331.59;5078732;28;30972;-73
2023/06/03 06:21:17;;;;;;;4.72;1.98;;;;;;;-144.85;100.00;61331.59;5088805;28;32728;-74
2023/06/03 06:23:45;;;;;;;4.88;2.30;;;;;;;-144.85;100.00;61331.59;5092619;28;30778;-73
2023/06/03 06:26:14;;;;;;;2.92;1.90;;;;;;;-144.85;100.00;61331.59;5062283;28;30829;-73
2023/06/03 06:28:45;;;;;;;7.07;2.00;;;;;;;-144.85;100.00;61331.59;5066683;28;30786;-73
2023/06/03 06:31:15;;;;;;;5.95;2.05;;;;;;;-144.85;100.00;61331.59;5100479;28;32386;-72
2023/06/03 06:33:49;;;;;;;4.22;1.80;;;;;;;-144.85;100.00;61331.59;5081999;28;31250;-73
2023/06/03 06:36:37;;;;;;;4.22;1.73;;;;;;;-144.85;100.00;61331.59;5084734;28;31429;-73
2023/06/03 06:39:33;;;;;;;4.00;1.90;;;;;;;-144.85;100.00;61331.59;5080564;28;30734;-73
2023/06/03 06:42:32;;;;;;;5.78;1.70;;;;;;;-144.85;100.00;61331.59;5097587;28;32535;-72
2023/06/03 06:45:25;;;;;;;4.03;1.80;;;;;;;-144.85;100.00;61331.59;5058247;28;32377;-73
2023/06/03 06:48:09;;;;;;;4.57;1.80;;;;;;;-144.85;100.00;61331.59;5062491;28;31827;-72
2023/06/03 06:50:59;;;;;;;5.17;1.80;;;;;;;-144.85;100.00;61331.59;5060315;28;31733;-72
2023/06/03 06:53:34;;;;;;;5.32;1.80;;;;;;;-144.85;100.00;61331.59;5058893;28;31691;-72
2023/06/03 06:56:07;;;;;;;6.35;1.60;;;;;;;-144.85;100.00;61331.59;5076637;28;31428;-72
2023/06/03 06:59:07;;;;;;;3.22;2.13;;;;;;;-144.85;100.00;61331.59;5086611;28;32400;-72
2023/06/03 07:01:35;;;;;;;5.25;1.70;;;;;;;-144.85;100.00;61331.59;5065403;28;30745;-73
2023/06/03 07:04:03;;;;;;;3.33;1.80;;;;;;;-144.85;100.00;61331.59;5065739;28;32483;-72
2023/06/03 07:06:30;;;;;;;4.75;1.60;;;;;;;-144.85;100.00;61331.59;5098271;28;32250;-72
2023/06/03 07:09:02;;;;;;;5.40;1.70;;;;;;;-144.85;100.00;61331.59;5065782;28;32370;-72
2023/06/03 07:11:36;;;;;;;2.85;1.50;;;;;;;-144.85;100.00;61331.59;5066603;28;31484;-73
2023/06/03 07:14:04;;;;;;;6.63;1.60;;;;;;;-144.85;100.00;61331.59;5094684;28;32866;-73
2023/06/03 07:16:31;;;;;;;3.08;1.60;;;;;;;-144.85;100.00;61331.59;5070422;28;31460;-73
2023/06/03 07:18:59;;;;;;;6.00;1.83;;;;;;;-144.85;100.00;61331.59;5060486;28;30954;-72
2023/06/03 07:21:33;;;;;;;5.80;1.35;;;;;;;-144.85;100.00;61331.59;5081032;28;30457;-73
2023/06/03 07:24:03;;;;;;;4.38;1.75;;;;;;;-144.85;100.00;61331.59;5099622;28;32365;-73
2023/06/03 07:26:33;;;;;;;4.43;1.42;;;;;;;-144.85;100.00;61331.59;5072588;28;31300;-72
2023/06/03 07:29:01;;;;;;;3.58;1.50;;;;;;;-144.85;100.00;61331.59;5072047;28;30979;-72
2023/06/03 07:31:30;;;;;;;4.95;1.67;;;;;;;-144.85;100.00;61331.59;5068512;28;30782;-72
2023/06/03 07:33:58;;;;;;;4.03;1.73;;;;;;;-144.85;100.00;61331.59;5068768;28;32257;-73
2023/06/03 07:36:30;;;;;;;5.47;1.40;;;;;;;-144.85;100.00;61331.59;5083785;28;33131;-73
2023/06/03 07:39:02;;;;;;;2.25;1.38;;;;;;;-144.85;100.00;61331.59;5069639;28;30681;-73
2023/06/03 07:41:38;;;;;;;2.40;1.45;;;;;;;-144.85;100.00;61331.59;5082657;28;30544;-72
2023/06/03 07:44:10;;;;;;;3.97;1.65;;;;;;;-144.85;100.00;61331.59;5086010;28;32521;-73
2023/06/03 07:46:40;;;;;;;3.33;1.67;;;;;;;-144.85;100.00;61331.59;5086726;28;32752;-72
2023/06/03 07:49:10;;;;;;;2.13;1.30;;;;;;;-144.85;100.00;61331.59;5088636;28;31699;-73
2023/06/03 07:51:43;;;;;;;2.47;1.33;;;;;;;-144.85;100.00;61331.59;5091990;28;31332;-73
2023/06/03 07:54:11;;;;;;;4.18;1.67;;;;;;;-144.85;100.00;61331.59;5095672;28;32258;-73
2023/06/03 07:56:40;;;;;;;4.30;1.40;;;;;;;-144.85;100.00;61331.59;5098136;28;32325;-72
2023/06/03 07:59:11;;;;;;;3.75;1.52;;;;;;;-144.85;100.00;61331.59;5088112;28;32598;-73
2023/06/03 08:01:39;;;;;;;5.50;1.55;;;;;;;-144.85;100.00;61331.59;5089840;28;30647;-73
2023/06/03 08:04:29;;;;;;;2.17;1.20;;;;;;;-144.85;100.00;61331.59;5094143;28;32425;-72
2023/06/03 08:06:59;;;;;;;3.78;1.38;;;;;;;-144.85;100.00;61331.59;5072769;28;31869;-73
2023/06/03 08:09:34;;;;;;;2.53;1.20;;;;;;;-144.85;100.00;61331.59;5091792;28;32254;-73
2023/06/03 08:12:04;;;;;;;2.55;1.30;;;;;;;-144.85;100.00;61331.59;5091311;28;31349;-73
2023/06/03 08:14:36;;;;;;;3.88;1.50;;;;;;;-144.85;100.00;61331.59;5102592;28;33988;-73
2023/06/03 08:17:09;;;;;;;2.72;1.27;;;;;;;-144.85;100.00;61331.59;5080471;28;32271;-73
2023/06/03 08:19:36;;;;;;;3.65;1.50;;;;;;;-144.85;100.00;61331.59;5104599;27;31801;-74
2023/06/03 08:22:31;;;;;;;4.22;1.33;;;;;;;-144.85;100.00;61331.59;5088122;28;32984;-73
2023/06/03 08:24:58;;;;;;;3.97;1.30;;;;;;;-144.85;100.00;61331.59;5054425;28;32799;-73
2023/06/03 08:27:25;;;;;;;6.30;1.33;;;;;;;-144.85;100.00;61331.59;5086952;28;32370;-73
2023/06/03 08:29:52;;;;;;;2.28;1.10;;;;;;;-144.85;100.00;61331.59;5103469;28;31658;-73
2023/06/03 08:32:19;;;;;;;10.02;1.23;;;;;;;-144.85;100.00;61331.59;5085272;28;30575;-74
2023/06/03 08:34:47;;;;;;;4.32;1.30;;;;;;;-144.85;100.00;61331.59;5095856;28;32479;-73
2023/06/03 08:37:14;;;;;;;4.03;1.55;;;;;;;-144.85;100.00;61331.59;5091053;28;31859;-73
2023/06/03 08:39:42;;;;;;;5.35;1.50;;;;;;;-144.85;100.00;61331.59;5089069;28;31331;-72
2023/06/03 08:42:15;;;;;;;4.35;1.30;;;;;;;-144.85;100.00;61331.59;5073201;28;30566;-72
2023/06/03 08:45:08;;;;;;;5.10;1.40;;;;;;;-144.85;100.00;61331.59;5076906;28;31791;-73
2023/06/03 08:48:04;;;;;;;6.95;1.10;;;;;;;-144.85;100.00;61331.59;5099219;28;31681;-73
2023/06/03 08:50:32;;;;;;;1.73;1.00;;;;;;;-144.85;100.00;61331.59;5090319;28;32216;-74
2023/06/03 08:53:04;;;;;;;4.20;1.30;;;;;;;-144.85;100.00;61331.59;5089066;28;32278;-73
2023/06/03 08:55:32;;;;;;;2.70;1.42;;;;;;;-144.85;100.00;61331.59;5097502;28;33461;-74
2023/06/03 08:58:12;;;;;;;4.40;1.00;;;;;;;-144.85;100.00;61331.59;5087194;28;33014;-73
2023/06/03 09:00:42;;;;;;;1.58;1.00;;;;;;;-144.85;100.00;61331.59;5074380;28;30701;-73
2023/06/03 09:03:11;;;;;;;2.40;1.02;;;;;;;-144.85;100.00;61331.59;5079589;28;31358;-73
2023/06/03 09:05:39;;;;;;;6.28;1.20;;;;;;;-144.85;100.00;61331.59;5093553;28;32705;-72
2023/06/03 09:08:08;;;;;;;5.45;1.30;;;;;;;-144.85;100.00;61331.59;5087292;28;31193;-73
2023/06/03 09:10:35;;;;;;;2.85;1.20;;;;;;;-144.85;100.00;61331.59;5093728;28;31523;-72
2023/06/03 09:13:05;;;;;;;4.03;1.10;;;;;;;-144.85;100.00;61331.59;5101393;28;31383;-74
2023/06/03 09:15:32;;;;;;;2.83;0.90;;;;;;;-144.85;100.00;61331.59;5081923;28;33204;-73
2023/06/03 09:17:59;;;;;;;2.13;1.00;;;;;;;-144.85;100.00;61331.59;5078076;28;31237;-73
2023/06/03 09:20:27;;;;;;;1.75;1.00;;;;;;;-144.85;100.00;61331.59;5098936;28;31592;-73
2023/06/03 09:22:55;;;;;;;2.63;1.10;;;;;;;-144.85;100.00;61331.59;5097884;28;31381;-76
2023/06/03 09:25:23;;;;;;;3.70;0.85;;;;;;;-144.85;100.00;61331.59;5102880;28;32078;-74
2023/06/03 09:27:50;;;;;;;2.42;1.10;;;;;;;-144.85;100.00;61331.59;5089522;28;31844;-74
2023/06/03 09:30:17;;;;;;;3.50;1.08;;;;;;;-144.85;100.00;61331.59;5087896;28;31490;-74
2023/06/03 09:32:45;;;;;;;2.35;1.10;;;;;;;-144.85;100.00;61331.59;5101511;28;31658;-75
2023/06/03 09:35:13;;;;;;;6.25;1.20;;;;;;;-144.85;100.00;61331.59;5078468;28;32588;-74
2023/06/03 09:37:57;;;;;;;1.75;1.10;;;;;;;-144.85;100.00;61331.59;5099943;28;32854;-73
2023/06/03 09:40:27;;;;;;;5.90;1.27;;;;;;;-144.85;100.00;61331.59;5091578;28;31916;-73
2023/06/03 09:42:54;;;;;;;2.63;0.85;;;;;;;-144.85;100.00;61331.59;5079582;28;31043;-74
2023/06/03 09:45:32;;;;;;;1.75;1.13;;;;;;;-144.85;100.00;61331.59;5103140;28;32730;-72
2023/06/03 09:48:00;;;;;;;1.35;0.93;;;;;;;-144.85;100.00;61331.59;5075773;28;30853;-72
2023/06/03 09:50:31;;;;;;;2.40;0.90;;;;;;;-144.85;100.00;61331.59;5102155;28;31533;-73
2023/06/03 09:52:59;;;;;;;4.57;0.90;;;;;;;-144.85;100.00;61331.59;5094302;28;31691;-72
2023/06/03 09:55:34;;;;;;;2.22;0.90;;;;;;;-144.85;100.00;61331.59;5092098;28;31326;-73
2023/06/03 09:58:09;;;;;;;2.20;1.00;;;;;;;-144.85;100.00;61331.59;5083026;28;32786;-73
2023/06/03 10:00:48;;;;;;;2.25;0.95;;;;;;;-144.85;100.00;61331.59;5097401;28;31926;-73
2023/06/03 10:03:18;;;;;;;3.70;0.70;;;;;;;-144.85;100.00;61331.59;5081974;28;32224;-74
2023/06/03 10:05:46;;;;;;;3.10;0.90;;;;;;;-144.85;100.00;61331.59;5096276;28;32233;-75
2023/06/03 10:08:13;;;;;;;1.55;0.70;;;;;;;-144.85;100.00;61331.59;5072916;28;32541;-75
2023/06/03 10:10:55;;;;;;;3.28;1.05;;;;;;;-144.85;100.00;61331.59;5089480;28;31749;-73
2023/06/03 10:13:23;;;;;;;2.92;0.70;;;;;;;-144.85;100.00;61331.59;5072078;28;30258;-73
2023/06/03 10:15:52;;;;;;;1.88;0.90;;;;;;;-144.85;100.00;61331.59;5088142;28;33387;-74
2023/06/03 10:18:40;;;;;;;5.57;0.90;;;;;;;-144.85;100.00;61331.59;5069789;28;30989;-74
2023/06/03 10:21:08;;;;;;;3.08;1.00;;;;;;;-144.85;100.00;61331.59;5066372;28;32827;-73
2023/06/03 10:23:38;;;;;;;1.70;1.00;;;;;;;-144.85;100.00;61331.59;5073124;28;31678;-73
2023/06/03 10:26:07;;;;;;;3.88;1.00;;;;;;;-144.85;100.00;61331.59;5097730;28;33300;-73
2023/06/03 10:28:36;;;;;;;2.55;0.80;;;;;;;-144.85;100.00;61331.59;5075510;28;31781;-73
2023/06/03 10:31:04;;;;;;;2.75;0.88;;;;;;;-144.85;100.00;61331.59;5076431;28;32295;-74
2023/06/03 10:33:33;;;;;;;2.55;0.85;;;;;;;-144.85;100.00;61331.59;5094078;28;31672;-73
2023/06/03 10:36:03;;;;;;;2.15;0.70;;;;;;;-144.85;100.00;61331.59;5069467;28;32432;-73
2023/06/03 10:38:31;;;;;;;1.02;0.70;;;;;;;-144.85;100.00;61331.59;5092135;28;32235;-73
2023/06/03 10:41:01;;;;;;;2.88;0.82;;;;;;;-144.85;100.00;61331.59;5058658;28;32243;-73
2023/06/03 10:43:31;;;;;;;1.73;0.90;;;;;;;-144.85;100.00;61331.59;5093998;28;32518;-73
2023/06/03 10:46:00;;;;;;;2.55;1.00;;;;;;;-144.85;100.00;61331.59;5100630;28;32371;-74
2023/06/03 10:48:29;;;;;;;1.70;0.95;;;;;;;-144.85;100.00;61331.59;5104368;28;32133;-73
2023/06/03 10:51:20;;;;;;;1.52;0.85;;;;;;;-144.85;100.00;61331.59;5098118;28;32687;-73
2023/06/03 10:54:14;;;;;;;1.30;0.80;;;;;;;-144.85;100.00;61331.59;5090679;28;32521;-74
2023/06/03 10:56:45;;;;;;;3.58;1.10;;;;;;;-144.85;100.00;61331.59;5093027;28;32473;-73
2023/06/03 10:59:18;;;;;;;1.23;1.00;;;;;;;-144.85;100.00;61331.59;5064527;28;31199;-74
2023/06/03 11:01:55;;;;;;;3.50;1.10;;;;;;;-144.85;100.00;61331.59;5093840;28;32954;-72
2023/06/03 11:04:22;;;;;;;3.13;1.00;;;;;;;-144.85;100.00;61331.59;5102935;28;32279;-74
2023/06/03 11:06:49;;;;;;;4.03;1.00;;;;;;;-144.85;100.00;61331.59;5103445;28;32099;-74
2023/06/03 11:09:29;;;;;;;2.03;1.00;;;;;;;-144.85;100.00;61331.59;5101727;28;33134;-74
2023/06/03 11:12:04;;;;;;;2.83;1.27;;;;;;;-144.85;100.00;61331.59;5082504;28;32070;-74
2023/06/03 11:14:32;;;;;;;;;;;;;;;-144.85;100.00;61331.59;5065296;28;31404;-74
2023/06/03 11:16:59;;;;;;;4.07;1.10;;;;;;;-144.85;100.00;61331.59;5073722;28;32876;-73
2023/06/03 11:19:35;;;;;;;3.05;1.08;;;;;;;-144.85;100.00;61331.59;5069531;28;32013;-74
2023/06/03 11:22:10;;;;;;;3.47;1.23;;;;;;;-144.85;100.00;61331.59;5067153;28;31327;-74
2023/06/03 11:24:42;;;;;;;3.05;1.42;;;;;;;-144.85;100.00;61331.59;5089089;28;31860;-73